Time;durP1;ratioP1;P1;durP2;ratioP2;P2;SDS_P1;SDS_P2;PMS_P1;PMS_P2;Temp;Humidity;BMP_temperature;BMP_pressure;BME280_temperature;BME280_humidity;BME280_pressure;Samples;Min_cycle;Max_cycle;Signal;HPM_P1;HPM_P2
2023/09/24 00:10:38;;;;;;;8.63;6.37;;;13.10;99.90;;;;;;5346128;23;20732;-85
2023/09/24 00:30:23;;;;;;;;;;;;;;;;;;;;;
2023/09/24 00:34:27;;;;;;;16.20;8.00;;;13.20;99.90;;;;;;4922070;29;20623;-86
2023/09/24 00:37:43;;;;;;;8.13;6.30;;;13.20;99.90;;;;;;4888589;29;20200;-87
2023/09/24 00:40:57;;;;;;;10.33;6.63;;;13.20;99.90;;;;;;4898145;29;20207;-87
2023/09/24 00:44:30;;;;;;;10.33;6.90;;;13.10;99.90;;;;;;4913897;29;20226;-87
2023/09/24 00:51:19;;;;;;;10.23;7.80;;;13.00;99.90;;;;;;4822074;29;20730;-85
2023/09/24 00:53:55;;;;;;;7.60;6.80;;;12.90;99.90;;;;;;4808077;29;20199;-86
2023/09/24 00:56:41;;;;;;;8.87;6.67;;;13.00;99.90;;;;;;4807416;29;20198;-85
2023/09/24 00:59:24;;;;;;;9.63;6.90;;;13.00;99.90;;;;;;4806117;29;20671;-86
2023/09/24 01:02:09;;;;;;;11.03;6.90;;;12.90;99.90;;;;;;4822239;29;20335;-85
2023/09/24 01:05:39;;;;;;;9.70;6.57;;;13.00;99.90;;;;;;4791696;29;20380;-87
2023/09/24 01:22:18;;;;;;;6.53;5.80;;;13.00;99.90;;;;;;5613538;21;18010114;-84
2023/09/24 01:25:18;;;;;;;8.63;5.37;;;13.10;99.90;;;;;;6356264;22;20180;-85
2023/09/24 01:28:26;;;;;;;7.07;5.10;;;13.30;99.90;;;;;;6382013;22;20212;-85
2023/09/24 01:31:44;;;;;;;6.87;5.37;;;13.30;99.90;;;;;;6409860;22;20174;-85
2023/09/24 01:34:31;;;;;;;6.03;5.20;;;13.10;99.90;;;;;;6381931;22;20170;-85
2023/09/24 02:21:20;;;;;;;4.60;3.90;;;13.30;99.90;;;;;;5973502;24;20575;-84
2023/09/24 02:25:20;;;;;;;4.83;3.70;;;13.40;99.90;;;;;;5948919;24;20617;-84
2023/09/24 02:29:16;;;;;;;5.23;3.97;;;13.50;99.90;;;;;;5756593;24;20264;-82
2023/09/24 02:32:45;;;;;;;;;;;;;;;;;;;;;
2023/09/24 02:44:58;;;;;;;;;;;;;;;;;;;;;
2023/09/24 03:26:24;;;;;;;6.63;4.70;;;13.10;99.90;;;;;;5870380;24;20168;-82
2023/09/24 03:29:26;;;;;;;6.43;4.07;;;13.30;99.90;;;;;;5918565;24;20165;-81
2023/09/24 03:50:48;;;;;;;5.67;4.60;;;13.40;99.90;;;;;;4505868;27;18056022;-85
2023/09/24 03:54:16;;;;;;;7.37;5.07;;;13.10;99.90;;;;;;4991338;28;20245;-84
2023/09/24 03:57:16;;;;;;;8.17;5.80;;;13.20;99.90;;;;;;4908146;29;20527;-84
2023/09/24 04:00:38;;;;;;;7.30;5.63;;;13.10;99.90;;;;;;4909992;29;20294;-82
2023/09/24 04:04:27;;;;;;;7.90;5.50;;;12.90;99.90;;;;;;4906912;29;20281;-84
2023/09/24 04:08:15;;;;;;;7.07;5.33;;;12.60;99.90;;;;;;4893585;29;20207;-83
2023/09/24 04:11:27;;;;;;;12.03;5.73;;;12.80;99.90;;;;;;4909069;29;20298;-82
2023/09/24 04:15:28;;;;;;;7.73;5.20;;;13.20;99.90;;;;;;4892489;29;20207;-83
2023/09/24 04:19:07;;;;;;;;;;;;;;;;;;;;;
2023/09/24 05:01:13;;;;;;;6.63;4.60;;;13.00;99.90;;;;;;5577137;22;15522058;-84
2023/09/24 05:04:40;;;;;;;7.07;4.63;;;13.10;99.90;;;;;;6174078;23;20176;-83
2023/09/24 05:07:44;;;;;;;6.47;4.63;;;13.30;99.90;;;;;;6043124;23;20193;-82
2023/09/24 05:10:24;;;;;;;8.80;5.30;;;13.40;99.90;;;;;;6019153;23;20175;-83
2023/09/24 05:13:12;;;;;;;6.20;5.00;;;13.30;99.90;;;;;;6043442;23;20179;-83
2023/09/24 05:16:06;;;;;;;7.60;5.33;;;13.00;99.90;;;;;;6020474;23;20242;-83
2023/09/24 05:18:47;;;;;;;6.53;5.10;;;13.10;99.90;;;;;;6042341;23;20253;-83
2023/09/24 05:21:55;;;;;;;7.30;5.00;;;13.00;99.90;;;;;;6020652;23;20198;-83
2023/09/24 05:24:58;;;;;;;7.43;4.90;;;12.90;99.90;;;;;;6042564;23;20762;-83
2023/09/24 05:27:49;;;;;;;6.83;4.93;;;13.10;99.90;;;;;;6071797;23;20174;-82
2023/09/24 05:30:24;;;;;;;7.10;4.90;;;13.10;99.90;;;;;;6047837;23;20233;-83
2023/09/24 05:32:57;;;;;;;6.73;5.07;;;13.20;99.90;;;;;;6049374;23;20182;-83
2023/09/24 05:35:37;;;;;;;7.83;5.10;;;13.10;99.90;;;;;;6072066;23;20174;-82
2023/09/24 05:38:12;;;;;;;8.20;5.70;;;12.90;99.90;;;;;;6099563;23;20171;-84
2023/09/24 05:40:49;;;;;;;8.43;5.07;;;13.20;99.90;;;;;;6111556;23;20183;-83
2023/09/24 05:43:35;;;;;;;7.90;5.53;;;13.40;99.90;;;;;;6134818;23;20175;-81
2023/09/24 05:46:19;;;;;;;7.20;5.57;;;13.10;99.90;;;;;;6135097;23;20207;-82
2023/09/24 05:49:00;;;;;;;8.43;5.77;;;13.20;99.90;;;;;;6133249;23;20278;-81
2023/09/24 05:51:33;;;;;;;8.60;5.60;;;13.20;99.90;;;;;;6152245;23;20279;-82
2023/09/24 05:54:12;;;;;;;7.97;5.10;;;13.20;99.90;;;;;;6106684;23;20204;-81
2023/09/24 05:56:46;;;;;;;7.37;5.40;;;13.40;99.90;;;;;;6130161;23;20631;-81
2023/09/24 05:59:14;;;;;;;8.07;5.80;;;13.40;99.90;;;;;;6104696;23;20162;-81
2023/09/24 06:01:43;;;;;;;15.93;5.80;;;13.30;99.90;;;;;;6122965;23;20609;-82
2023/09/24 06:04:13;;;;;;;6.73;5.23;;;13.60;99.90;;;;;;6126605;23;20211;-82
2023/09/24 06:06:48;;;;;;;8.23;5.60;;;13.60;99.90;;;;;;6135287;23;20198;-82
2023/09/24 06:09:19;;;;;;;7.43;5.03;;;13.50;99.90;;;;;;6129595;23;20286;-82
2023/09/24 06:11:54;;;;;;;8.83;5.57;;;13.40;99.90;;;;;;6130646;23;20557;-83
2023/09/24 06:14:27;;;;;;;7.37;5.50;;;13.50;99.90;;;;;;6129615;23;20203;-82
2023/09/24 06:17:02;;;;;;;7.33;5.33;;;13.60;99.90;;;;;;6153144;23;20176;-82
2023/09/24 06:19:54;;;;;;;8.40;5.90;;;13.60;99.90;;;;;;6155730;23;20260;-84
2023/09/24 06:22:49;;;;;;;7.77;5.40;;;14.00;99.90;;;;;;6154095;23;20215;-82
2023/09/24 06:25:22;;;;;;;7.50;5.43;;;13.70;99.90;;;;;;6130143;23;20175;-83
2023/09/24 06:27:51;;;;;;;6.93;5.50;;;13.80;99.90;;;;;;6153957;23;20229;-83
2023/09/24 06:30:45;;;;;;;6.40;5.10;;;13.90;99.90;;;;;;6130111;23;20639;-83
2023/09/24 06:33:19;;;;;;;8.97;5.43;;;14.00;99.90;;;;;;6155528;23;20171;-83
2023/09/24 06:35:59;;;;;;;8.03;5.47;;;14.20;99.90;;;;;;6153742;23;20198;-81
2023/09/24 06:38:33;;;;;;;8.17;5.77;;;14.00;99.90;;;;;;6154892;23;20176;-80
2023/09/24 06:41:07;;;;;;;9.47;5.43;;;14.30;99.90;;;;;;6155235;23;20169;-81
2023/09/24 06:43:41;;;;;;;7.80;5.60;;;14.30;99.90;;;;;;6130144;23;20196;-81
2023/09/24 06:46:16;;;;;;;7.90;5.40;;;14.50;99.90;;;;;;6124890;23;20168;-83
2023/09/24 06:48:47;;;;;;;8.10;5.20;;;14.60;99.90;;;;;;6123732;23;20201;-83
2023/09/24 06:51:27;;;;;;;9.67;5.13;;;14.40;99.90;;;;;;6100845;23;20197;-83
2023/09/24 06:54:01;;;;;;;6.93;5.10;;;14.40;99.90;;;;;;6124415;23;20166;-84
2023/09/24 06:56:37;;;;;;;7.10;5.20;;;14.60;99.90;;;;;;6123709;23;20172;-84
2023/09/24 06:59:10;;;;;;;8.43;5.60;;;14.60;99.90;;;;;;6100300;23;20256;-84
2023/09/24 07:01:47;;;;;;;7.50;4.90;;;14.60;99.90;;;;;;6124055;23;20185;-81
2023/09/24 07:04:23;;;;;;;8.87;5.37;;;14.70;99.90;;;;;;6123817;23;20597;-83
2023/09/24 07:06:58;;;;;;;6.00;4.63;;;14.90;99.90;;;;;;6124483;23;20197;-82
2023/09/24 07:09:29;;;;;;;6.53;4.73;;;15.10;99.90;;;;;;6100674;23;20532;-81
2023/09/24 07:11:59;;;;;;;6.67;4.87;;;15.30;99.90;;;;;;6125267;23;20172;-81
2023/09/24 07:15:00;;;;;;;8.87;5.40;;;15.40;99.90;;;;;;6102475;23;20192;-83
2023/09/24 07:17:49;;;;;;;7.13;5.30;;;15.60;99.90;;;;;;6123966;23;20304;-81
2023/09/24 07:20:37;;;;;;;6.90;4.90;;;15.20;99.90;;;;;;6100889;23;20631;-81
2023/09/24 07:23:54;;;;;;;6.70;4.97;;;15.30;99.90;;;;;;6123246;23;20379;-84
2023/09/24 07:26:45;;;;;;;7.83;4.43;;;15.40;99.90;;;;;;6123583;23;20661;-84
2023/09/24 07:29:41;;;;;;;6.20;4.70;;;15.60;99.90;;;;;;6078443;23;20213;-84
2023/09/24 07:32:33;;;;;;;7.50;4.10;;;15.80;99.90;;;;;;6145730;23;20157;-83
2023/09/24 07:35:14;;;;;;;5.57;4.47;;;15.90;99.90;;;;;;6101090;23;20608;-83
2023/09/24 07:38:02;;;;;;;6.43;4.90;;;16.10;99.90;;;;;;6125561;23;20172;-83
2023/09/24 07:45:14;;;;;;;6.00;4.40;;;16.30;99.90;;;;;;5950157;24;20200;-84
2023/09/24 07:48:39;;;;;;;8.97;4.83;;;16.20;99.90;;;;;;5948606;24;20242;-84
2023/09/24 07:51:37;;;;;;;7.07;4.30;;;16.60;99.90;;;;;;5949180;24;20641;-82
2023/09/24 07:54:33;;;;;;;8.57;4.27;;;16.60;99.90;;;;;;5929572;24;20184;-84
2023/09/24 07:57:18;;;;;;;5.47;4.30;;;16.70;99.90;;;;;;5927734;24;20180;-83
2023/09/24 08:00:03;;;;;;;5.77;4.00;;;16.70;99.90;;;;;;5931851;24;20204;-83
2023/09/24 08:03:32;;;;;;;5.73;3.60;;;16.80;99.90;;;;;;5942693;24;20177;-84
2023/09/24 08:06:24;;;;;;;5.73;4.30;;;16.80;99.90;;;;;;5866354;24;20691;-83
2023/09/24 08:09:01;;;;;;;8.87;4.43;;;16.90;99.90;;;;;;5846556;24;20627;-83
2023/09/24 08:12:01;;;;;;;8.73;4.40;;;17.00;99.90;;;;;;5846399;24;20194;-81
2023/09/24 08:14:47;;;;;;;10.63;4.50;;;17.10;99.90;;;;;;5868403;24;20314;-83
2023/09/24 08:17:42;;;;;;;8.20;4.50;;;17.40;99.90;;;;;;5926160;24;20198;-83
2023/09/24 08:20:16;;;;;;;6.17;3.90;;;17.50;99.90;;;;;;5960016;23;20172;-83
2023/09/24 08:23:25;;;;;;;;;;;;;;;;;;;;;
2023/09/24 08:27:09;;;;;;;7.57;4.13;;;17.50;99.90;;;;;;5981292;23;20635;-84
2023/09/24 08:29:39;;;;;;;5.20;3.80;;;17.90;99.90;;;;;;6006173;23;20203;-81
2023/09/24 08:32:30;;;;;;;6.00;3.70;;;18.00;99.90;;;;;;6006131;23;20183;-83
2023/09/24 08:35:18;;;;;;;5.43;3.33;;;18.10;99.90;;;;;;5982079;23;20186;-83
2023/09/24 08:38:09;;;;;;;3.77;3.33;;;18.40;99.90;;;;;;6007067;23;20159;-81
2023/09/24 08:41:12;;;;;;;5.97;3.10;;;18.30;99.90;;;;;;6006426;23;20175;-84
2023/09/24 08:44:43;;;;;;;5.67;3.77;;;18.60;99.90;;;;;;6123283;23;20511;-84
2023/09/24 08:47:49;;;;;;;6.47;3.47;;;18.20;99.90;;;;;;6062953;23;20181;-83
2023/09/24 08:50:36;;;;;;;5.37;3.20;;;18.70;99.90;;;;;;6037491;23;20260;-84
2023/09/24 08:53:28;;;;;;;6.07;3.20;;;18.80;99.90;;;;;;6037003;23;20210;-83
2023/09/24 09:00:30;;;;;;;4.40;2.73;;;19.40;99.90;;;;;;5987223;23;20203;-86
2023/09/24 09:07:06;;;;;;;3.70;2.60;;;19.90;99.90;;;;;;5981407;23;20210;-85
2023/09/24 09:10:51;;;;;;;5.00;2.50;;;20.00;99.90;;;;;;5886869;24;20206;-85
2023/09/24 09:13:55;;;;;;;6.53;2.73;;;19.70;99.90;;;;;;5869404;24;20178;-83
2023/09/24 09:17:10;;;;;;;6.10;2.27;;;19.90;99.90;;;;;;5894602;24;20178;-80
2023/09/24 09:19:59;;;;;;;3.00;2.07;;;19.70;99.90;;;;;;5931313;24;20249;-83
2023/09/24 09:23:20;;;;;;;3.10;2.50;;;19.80;99.90;;;;;;5949423;24;20213;-84
2023/09/24 09:25:52;;;;;;;7.93;2.30;;;19.70;99.90;;;;;;5841847;24;20187;-84
2023/09/24 09:28:53;;;;;;;6.50;1.90;;;20.20;99.90;;;;;;5785927;24;20203;-82
2023/09/24 09:32:08;;;;;;;2.53;2.00;;;20.00;99.90;;;;;;4659894;27;12152885;-83
2023/09/24 09:34:57;;;;;;;3.73;1.80;;;20.00;99.90;;;;;;5051532;28;20275;-82
2023/09/24 09:37:46;;;;;;;4.30;1.80;;;19.20;99.90;;;;;;5048063;28;20194;-82
2023/09/24 09:44:33;;;;;;;2.80;1.80;;;19.50;99.90;;;;;;5040179;28;20179;-82
2023/09/24 09:47:38;;;;;;;3.87;1.83;;;19.50;99.90;;;;;;5061145;28;20252;-83
2023/09/24 09:50:44;;;;;;;3.90;1.67;;;19.70;99.90;;;;;;5047508;28;20226;-83
2023/09/24 09:57:40;;;;;;;;;;;;;;;;;;;;;
2023/09/24 10:00:38;;;;;;;5.13;1.80;;;19.80;99.90;;;;;;5047560;28;20719;-83
2023/09/24 10:03:21;;;;;;;5.53;1.90;;;20.10;99.90;;;;;;5031350;28;20207;-82
2023/09/24 10:06:23;;;;;;;3.73;1.57;;;20.30;99.90;;;;;;5032625;28;20225;-84
2023/09/24 10:09:31;;;;;;;2.97;1.60;;;20.40;99.90;;;;;;5047316;28;20197;-82
2023/09/24 10:12:34;;;;;;;6.00;2.00;;;20.20;99.90;;;;;;4989229;28;20605;-84
2023/09/24 10:15:31;;;;;;;2.03;1.50;;;20.30;99.90;;;;;;4990417;28;20746;-83
2023/09/24 10:18:15;;;;;;;2.50;1.40;;;20.50;99.90;;;;;;4991753;28;20190;-82
2023/09/24 10:21:01;;;;;;;3.83;1.30;;;20.80;99.90;;;;;;4990501;28;20683;-81
2023/09/24 10:23:30;;;;;;;4.20;1.50;;;21.20;99.90;;;;;;5005064;28;20276;-83
2023/09/24 10:26:23;;;;;;;6.27;1.47;;;21.50;99.90;;;;;;4975190;28;20603;-84
2023/09/24 10:28:53;;;;;;;3.33;1.70;;;21.80;99.90;;;;;;4989018;28;20205;-73
2023/09/24 10:31:21;;;;;;;3.30;1.50;;;21.80;99.90;;;;;;5005650;28;20240;-71
2023/09/24 10:33:58;;;;;;;2.90;1.40;;;22.00;99.90;;;;;;4990311;28;20200;-72
2023/09/24 10:36:30;;;;;;;2.67;1.40;;;22.10;99.90;;;;;;5005780;28;20220;-72
2023/09/24 10:39:13;;;;;;;2.17;1.20;;;22.40;99.90;;;;;;5006722;28;20658;-72
2023/09/24 10:42:08;;;;;;;4.30;1.57;;;22.70;99.90;;;;;;4984026;28;20250;-74
2023/09/24 10:44:37;;;;;;;2.23;1.27;;;22.90;99.90;;;;;;5033040;28;20202;-74
2023/09/24 10:47:27;;;;;;;2.17;1.40;;;23.30;99.90;;;;;;5034847;28;20330;-73
2023/09/24 10:50:06;;;;;;;1.80;1.20;;;23.60;99.90;;;;;;5034202;28;20575;-79
2023/09/24 10:52:55;;;;;;;2.22;1.30;;;24.00;99.90;;;;;;5034529;28;20254;-74
2023/09/24 10:55:34;;;;;;;2.75;1.17;;;23.60;99.90;;;;;;5033981;28;20201;-74
2023/09/24 10:58:08;;;;;;;1.30;1.03;;;23.60;99.90;;;;;;5033804;28;20195;-73
2023/09/24 11:00:36;;;;;;;2.35;1.00;;;24.00;99.90;;;;;;5034755;28;20196;-73
2023/09/24 11:03:05;;;;;;;1.50;0.90;;;24.50;99.90;;;;;;5033826;28;20199;-73
2023/09/24 15:47:40;;;;;;;4.73;1.10;;;19.70;99.90;;;;;;4700516;30;20422;-83
2023/09/24 18:13:45;;;;;;;4.40;2.30;;;17.20;99.90;;;;;;5662294;23;20244;-82
2023/09/24 19:11:44;;;;;;;;;;;;;;;;;;;;;
2023/09/24 20:44:12;;;;;;;;;;;;;;;;;;;;;
2023/09/24 20:47:20;;;;;;;8.00;3.60;;;16.10;99.90;;;;;;4801492;29;20238;-83
2023/09/24 20:50:06;;;;;;;9.10;3.67;;;16.10;99.90;;;;;;4801683;29;20298;-81
2023/09/24 20:53:04;;;;;;;8.27;3.50;;;16.20;99.90;;;;;;4768637;30;20823;-83
2023/09/24 20:55:50;;;;;;;9.20;3.70;;;16.10;99.90;;;;;;4783967;30;20627;-81
2023/09/24 20:58:58;;;;;;;5.87;3.73;;;16.10;99.90;;;;;;4769280;30;20216;-84
2023/09/24 21:01:52;;;;;;;6.10;3.50;;;16.00;99.90;;;;;;4774775;30;20280;-81
2023/09/24 21:04:35;;;;;;;6.13;3.60;;;16.20;99.90;;;;;;4783385;30;20440;-83
2023/09/24 21:07:24;;;;;;;9.60;3.97;;;16.20;99.90;;;;;;4782725;30;20238;-84
2023/09/24 21:10:39;;;;;;;6.57;3.63;;;16.20;99.90;;;;;;4747166;30;20255;-83
2023/09/24 21:14:03;;;;;;;6.87;3.40;;;16.10;99.90;;;;;;4780421;30;20242;-84
2023/09/24 21:21:37;;;;;;;;;;;;;;;;;;;;;
2023/09/24 21:28:26;;;;;;;;;;;;;;;;;;;;;
2023/09/24 21:36:39;;;;;;;;;;;;;;;;;;;;;
2023/09/24 21:54:06;;;;;;;4.73;3.03;;;15.80;99.90;;;;;;6216735;23;20170;-85
2023/09/24 21:56:50;;;;;;;6.50;3.23;;;15.70;99.90;;;;;;6188084;23;20181;-84
2023/09/24 21:59:31;;;;;;;6.10;3.17;;;15.80;99.90;;;;;;6219479;23;20229;-84
2023/09/24 22:02:16;;;;;;;4.33;2.90;;;15.70;99.90;;;;;;6164435;23;20221;-83
2023/09/24 22:05:21;;;;;;;4.47;2.90;;;15.70;99.90;;;;;;6071104;23;20505;-84
2023/09/24 22:08:12;;;;;;;6.20;2.97;;;15.70;99.90;;;;;;6036296;23;20173;-82
2023/09/24 22:11:55;;;;;;;;;;;;;;;;;;;;;
2023/09/24 22:16:33;;;;;;;4.87;2.80;;;15.50;99.90;;;;;;5977564;24;20522;-85
2023/09/24 22:29:28;;;;;;;4.20;2.57;;;15.50;99.90;;;;;;6218193;22;20268;-85
2023/09/24 23:42:54;;;;;;;4.80;2.90;;;14.30;99.90;;;;;;6222112;22;20244;-84
2023/09/24 23:45:23;;;;;;;5.77;2.97;;;14.50;99.90;;;;;;6218836;23;20197;-84
2023/09/24 23:47:58;;;;;;;4.63;2.83;;;14.30;99.90;;;;;;6243351;23;20170;-81
2023/09/24 23:50:44;;;;;;;4.57;3.13;;;14.30;99.90;;;;;;6218851;22;20657;-81
2023/09/24 23:53:50;;;;;;;14.10;4.63;;;14.20;99.90;;;;;;6215624;23;20185;-82
2023/09/24 23:56:21;;;;;;;7.30;3.13;;;14.40;99.90;;;;;;6219295;23;20170;-81
2023/09/24 23:58:49;;;;;;;5.83;3.10;;;14.30;99.90;;;;;;6243933;23;20626;-82
